Latest Weather Observations for Cummins Airport

IDS60801

Issued at 12:31 pm CST Thursday 30 June 2016 (issued every 30 minutes, with the page automatically refreshed every 10 minutes)

About weather observations | Map of weather stations | Latest weather observations for SA | Other Formats
Station Details ID: 018217 Name: CUMMINS AERO Lat: -34.25 Lon: 135.71 Height: 60.11 m
Data from the previous 72 hours. | See also: Recent months at Cummins Airport
Date/Time
CST
Temp
°C
App
Temp
°C
Dew
Point
°C
Rel
Hum
%
Delta-T
°C
Wind Press
QNH
hPa
Press
MSL
hPa
Rain since
9am
mm
Dir  Spd
km/h
Gust
km/h
Spd
kts
Gust
kts
30/12:30pm 14.0 6.1 6.1 59 3.8 WSW 37 48 20 26 1016.8 1016.8 0.2
30/12:00pm 13.8 6.1 6.9 63 3.3 WSW 37 50 20 27 1016.8 1016.8 0.2
30/11:30am 14.0 7.5 9.0 72 2.5 WSW 33 46 18 25 1016.8 1016.8 0.2
30/11:00am 13.7 7.6 9.7 77 2.1 WSW 32 48 17 26 1016.5 1016.5 0.2
30/10:58am 13.7 7.9 9.6 76 2.1 WSW 30 48 16 26 1016.4 1016.4 0.2
30/10:30am 13.1 8.6 11.5 90 0.8 WSW 26 35 14 19 1016.4 1016.4 0.2
30/10:00am 12.2 6.5 11.1 93 0.6 WSW 32 43 17 23 1016.1 1016.1 0.2
30/09:30am 13.3 8.0 11.4 88 1.0 WSW 30 44 16 24 1015.3 1015.3 0.0
30/09:00am 13.2 8.1 10.6 84 1.4 W 28 48 15 26 1014.8 1014.8 8.4
30/08:30am 11.6 8.9 11.6 100 0.0 W 17 19 9 10 1014.7 1014.7 8.4
30/08:00am 11.7 7.3 11.7 100 0.0 W 26 32 14 17 1014.5 1014.5 8.2
30/07:35am 12.6 7.1 12.0 96 0.3 W 32 50 17 27 1013.8 1013.8 7.8
30/07:30am 12.5 8.5 11.9 96 0.3 WNW 24 41 13 22 1013.6 1013.6 7.8
30/07:00am 12.1 8.7 11.2 94 0.5 WNW 20 39 11 21 1013.2 1013.2 7.6
30/06:30am 11.8 8.2 10.7 93 0.6 WNW 20 26 11 14 1012.8 1012.8 7.6
30/06:00am 11.8 8.4 10.4 91 0.7 WNW 19 24 10 13 1012.4 1012.4 7.6
30/05:30am 12.5 7.8 10.7 89 0.9 W 26 35 14 19 1012.3 1012.3 7.6
30/05:00am 12.4 9.5 12.4 100 0.0 W 19 24 10 13 1012.1 1012.1 7.6
30/04:30am 12.5 10.1 12.5 100 0.0 WNW 17 22 9 12 1012.1 1012.1 7.6
30/04:00am 12.5 9.5 12.5 100 0.0 W 20 28 11 15 1012.1 1012.1 7.2
30/03:30am 12.5 9.1 12.5 100 0.0 WNW 22 39 12 21 1012.1 1012.1 7.0
30/03:00am 11.7 9.4 11.7 100 0.0 NNW 15 22 8 12 1012.0 1012.0 4.8
30/02:30am 11.7 10.1 11.7 100 0.0 NW 11 20 6 11 1012.3 1012.3 4.8
30/02:00am 11.3 8.5 11.3 100 0.0 NNW 17 28 9 15 1012.5 1012.5 3.6
30/01:30am 11.3 7.6 10.0 92 0.7 NNW 20 28 11 15 1012.4 1012.4 0.2
30/01:00am 11.1 7.0 8.8 86 1.1 NNW 20 26 11 14 1012.4 1012.4 0.0
30/12:30am 11.3 7.3 8.9 85 1.2 NNW 20 26 11 14 1012.8 1012.8 0.0
30/12:00am 11.0 6.8 8.4 84 1.3 NNW 20 30 11 16 1013.0 1013.0 0.0
 
Date/Time
CST
Temp
°C
App
Temp
°C
Dew
Point
°C
Rel
Hum
%
Delta-T
°C
Wind Press
QNH
hPa
Press
MSL
hPa
Rain since
9am
mm
Dir  Spd
km/h
Gust
km/h
Spd
kts
Gust
kts
29/11:30pm 11.9 7.1 7.4 74 2.2 NNW 22 32 12 17 1012.9 1012.9 0.0
29/11:00pm 11.8 7.4 7.3 74 2.2 NNW 20 28 11 15 1013.0 1013.0 0.0
29/10:30pm 11.6 6.4 7.1 74 2.2 N 24 33 13 18 1012.7 1012.7 0.0
29/10:00pm 11.3 6.1 7.4 77 1.9 N 24 32 13 17 1012.9 1012.9 0.0
29/09:30pm 10.5 6.3 7.4 81 1.5 N 19 28 10 15 1013.2 1013.2 0.0
29/09:00pm 10.1 5.2 7.0 81 1.5 N 22 26 12 14 1013.3 1013.3 0.0
29/08:30pm 10.5 5.2 7.0 79 1.7 N 24 32 13 17 1013.5 1013.5 0.0
29/08:00pm 11.1 6.3 7.2 77 1.9 N 22 30 12 16 1013.7 1013.7 0.0
29/07:30pm 9.6 6.1 7.4 86 1.0 N 15 20 8 11 1014.0 1014.0 0.0
29/07:00pm 10.2 6.3 7.1 81 1.5 N 17 20 9 11 1014.1 1014.1 0.0
29/06:30pm 10.7 6.9 7.6 81 1.5 N 17 20 9 11 1014.2 1014.2 0.0
29/06:00pm 10.9 7.5 7.6 80 1.6 N 15 20 8 11 1014.3 1014.3 0.0
29/05:30pm 12.1 8.3 7.6 74 2.2 NNW 17 20 9 11 1014.3 1014.3 0.0
29/05:00pm 13.4 9.3 8.0 70 2.7 NNW 19 28 10 15 1014.3 1014.3 0.0
29/04:30pm 14.6 10.0 8.1 65 3.3 N 22 32 12 17 1014.2 1014.2 0.0
29/04:00pm 15.1 9.8 8.3 64 3.4 N 26 41 14 22 1014.3 1014.3 0.0
29/03:30pm 15.5 10.2 8.5 63 3.6 N 26 37 14 20 1014.3 1014.3 0.0
29/03:00pm 15.6 9.4 7.9 60 3.9 N 30 41 16 22 1014.6 1014.6 0.0
29/02:30pm 15.5 9.3 8.0 61 3.8 N 30 43 16 23 1014.9 1014.9 0.0
29/02:00pm 15.0 8.4 7.8 62 3.6 N 32 43 17 23 1015.2 1015.2 0.0
29/01:30pm 16.0 9.5 8.2 60 3.9 N 32 41 17 22 1015.7 1015.7 0.0
29/01:00pm 15.2 8.7 8.0 62 3.6 N 32 48 17 26 1016.2 1016.2 0.0
29/12:30pm 14.8 8.0 7.8 63 3.5 N 33 44 18 24 1016.9 1016.9 0.0
29/12:18pm 14.6 7.9 7.4 62 3.6 N 32 54 17 29 1017.2 1017.2 0.0
29/12:00pm 14.4 6.9 7.9 65 3.2 N 37 50 20 27 1017.7 1017.7 0.0
29/11:30am 13.8 6.5 7.3 65 3.2 N 35 50 19 27 1018.3 1018.3 0.0
29/11:00am 13.3 6.1 7.5 68 2.8 N 35 52 19 28 1018.8 1018.8 0.0
29/10:30am 12.6 5.7 7.3 70 2.6 N 33 48 18 26 1019.3 1019.3 0.0
29/10:00am 11.4 4.4 6.9 74 2.1 N 33 44 18 24 1020.0 1020.0 0.0
29/09:30am 11.0 4.2 6.9 76 1.9 N 32 44 17 24 1020.3 1020.3 0.0
29/09:00am 10.6 4.6 7.1 79 1.7 N 28 39 15 21 1020.5 1020.6 0.0
29/08:30am 10.3 5.0 7.0 80 1.6 N 24 35 13 19 1020.6 1020.7 0.0
29/08:00am 10.2 4.1 6.7 79 1.6 N 28 37 15 20 1020.7 1020.8 0.0
29/07:30am 10.1 4.0 6.6 79 1.6 N 28 39 15 21 1020.8 1020.9 0.0
29/07:00am 9.8 4.5 6.7 81 1.5 N 24 35 13 19 1021.0 1021.1 0.0
29/06:30am 9.4 4.8 6.7 83 1.3 N 20 28 11 15 1021.1 1021.2 0.0
29/06:00am 9.0 3.7 6.6 85 1.1 N 24 32 13 17 1021.1 1021.2 0.0
29/05:30am 8.7 3.7 6.5 86 1.0 NNE 22 30 12 16 1021.3 1021.4 0.0
29/05:00am 8.7 3.3 6.5 86 1.0 NNE 24 32 13 17 1021.5 1021.6 0.0
29/04:30am 8.1 3.7 6.4 89 0.8 NNE 19 24 10 13 1021.7 1021.8 0.0
29/04:00am 7.9 3.2 6.2 89 0.8 NNE 20 28 11 15 1022.0 1022.1 0.0
29/03:30am 7.2 3.1 6.0 92 0.5 NNE 17 22 9 12 1022.3 1022.4 0.0
29/03:00am 5.3 2.1 5.0 98 0.1 NNE 11 13 6 7 1022.6 1022.7 0.0
29/02:30am 4.9 1.2 4.2 95 0.3 NNE 13 19 7 10 1022.7 1022.8 0.0
29/02:00am 5.1 1.3 3.9 92 0.5 NNE 13 17 7 9 1023.0 1023.1 0.0
29/01:30am 5.4 1.3 4.2 92 0.5 NNE 15 19 8 10 1023.0 1023.1 0.0
29/01:00am 5.6 1.5 4.4 92 0.5 NNE 15 19 8 10 1023.3 1023.4 0.0
29/12:30am 5.5 2.2 4.3 92 0.5 NNE 11 13 6 7 1023.5 1023.6 0.0
29/12:00am 5.6 1.9 4.6 93 0.4 NNE 13 15 7 8 1023.7 1023.8 0.0
 
Date/Time
CST
Temp
°C
App
Temp
°C
Dew
Point
°C
Rel
Hum
%
Delta-T
°C
Wind Press
QNH
hPa
Press
MSL
hPa
Rain since
9am
mm
Dir  Spd
km/h
Gust
km/h
Spd
kts
Gust
kts
28/11:30pm 5.7 2.0 4.5 92 0.5 NNE 13 15 7 8 1024.0 1024.1 0.0
28/11:00pm 6.5 2.2 5.1 91 0.6 NNE 17 20 9 11 1024.1 1024.2 0.0
28/10:30pm 6.1 2.8 4.7 91 0.6 NNE 11 15 6 8 1024.2 1024.3 0.0
28/10:00pm 6.6 3.0 5.1 90 0.7 NE 13 17 7 9 1024.5 1024.6 0.0
28/09:30pm 6.1 2.9 4.9 92 0.5 NE 11 13 6 7 1024.6 1024.7 0.0
28/09:00pm 6.5 4.1 5.3 92 0.5 NNE 7 9 4 5 1024.8 1024.9 0.0
28/08:30pm 7.5 3.8 6.4 93 0.5 NE 15 17 8 9 1024.8 1024.9 0.0
28/08:00pm 6.3 3.1 5.3 93 0.4 NE 11 13 6 7 1024.7 1024.8 0.0
28/07:30pm 7.1 4.8 5.7 91 0.6 NE 7 9 4 5 1024.5 1024.6 0.0
28/07:00pm 8.2 6.0 6.3 88 0.9 NE 7 9 4 5 1024.3 1024.4 0.0
28/06:30pm 9.1 6.6 6.7 85 1.1 NE 9 13 5 7 1024.3 1024.4 0.0
28/06:00pm 10.1 7.8 7.3 83 1.3 NNE 9 11 5 6 1024.2 1024.3 0.0
28/05:30pm 11.0 8.8 7.9 81 1.5 N 9 9 5 5 1024.1 1024.2 0.0
28/05:00pm 12.4 10.2 7.7 73 2.3 NNW 9 11 5 6 1024.1 1024.2 0.0
28/04:30pm 13.4 10.8 7.8 69 2.8 NNW 11 19 6 10 1024.3 1024.4 0.0
28/04:00pm 14.5 11.6 8.0 65 3.2 NW 13 17 7 9 1024.3 1024.4 0.0
28/03:30pm 14.3 11.4 8.3 67 3.0 NNW 13 19 7 10 1024.4 1024.5 0.0
28/03:00pm 14.9 10.6 7.0 59 3.9 NW 19 26 10 14 1024.4 1024.5 0.0
28/02:30pm 14.4 9.8 6.3 58 3.9 NW 20 28 11 15 1024.6 1024.7 0.0
28/02:00pm 16.2 12.1 8.7 61 3.8 NNW 20 30 11 16 1024.7 1024.8 0.0
28/01:30pm 15.5 10.7 8.7 64 3.5 NNW 24 32 13 17 1025.0 1025.1 0.0
28/01:00pm 15.0 9.3 8.5 65 3.3 NNW 28 35 15 19 1025.5 1025.6 0.0
28/12:30pm 14.9 10.6 9.5 70 2.8 NNW 22 30 12 16 1026.0 1026.1 0.0
28/12:00pm 13.8 9.6 9.6 76 2.1 N 22 28 12 15 1026.5 1026.6 0.0
28/11:30am 13.3 9.6 10.1 81 1.6 NNW 20 28 11 15 1026.9 1027.0 0.0
28/11:00am 12.3 8.9 10.4 88 1.0 N 19 24 10 13 1027.0 1027.1 0.0
28/10:30am 11.7 8.5 10.1 90 0.8 N 17 24 9 13 1027.1 1027.2 0.0
28/10:00am 10.7 7.5 9.8 94 0.5 N 17 20 9 11 1026.9 1027.0 0.0
28/09:30am 9.9 7.4 9.6 98 0.1 N 13 17 7 9 1026.8 1026.9 0.0
28/09:00am 8.6 6.2 8.6 100 0.0 NNE 11 15 6 8 1026.5 1026.6 0.4
28/08:30am 7.8 4.8 7.8 100 0.0 NNE 13 17 7 9 1026.2 1026.3 0.4
28/08:00am 6.5 3.2 6.5 100 0.0 N 13 17 7 9 1025.9 1026.0 0.4
28/07:30am 5.4 2.3 5.4 100 0.0 NNE 11 13 6 7 1025.5 1025.6 0.4
28/07:00am 5.3 2.5 5.3 100 0.0 NNE 9 11 5 6 1025.4 1025.5 0.4
28/06:30am 5.7 2.3 5.7 100 0.0 NNE 13 15 7 8 1024.9 1025.0 0.4
28/06:00am 5.7 2.3 5.7 100 0.0 NNE 13 15 7 8 1024.6 1024.7 0.4
28/05:30am 5.7 2.6 5.7 100 0.0 NNE 11 15 6 8 1024.5 1024.6 0.4
28/05:00am 5.6 2.1 5.6 100 0.0 NNE 13 13 7 7 1024.2 1024.3 0.2
28/04:30am 5.6 2.5 5.6 100 0.0 NNE 11 13 6 7 1024.0 1024.1 0.2
28/04:00am 6.0 3.4 6.0 100 0.0 NNE 9 11 5 6 1024.1 1024.2 0.2
28/03:30am 6.4 3.5 6.4 100 0.0 NNE 11 13 6 7 1023.9 1024.0 0.2
28/03:00am 6.2 3.2 6.2 100 0.0 NNE 11 15 6 8 1024.0 1024.1 0.2
28/02:30am 6.8 4.0 6.8 100 0.0 NNE 11 15 6 8 1024.1 1024.2 0.2
28/02:00am 6.5 3.6 6.5 100 0.0 NNE 11 13 6 7 1024.2 1024.3 0.2
28/01:30am 6.5 3.6 6.5 100 0.0 N 11 13 6 7 1024.1 1024.2 0.2
28/01:00am 6.8 4.4 6.8 100 0.0 N 9 13 5 7 1024.2 1024.3 0.2
28/12:30am 7.0 3.8 7.0 100 0.0 N 13 13 7 7 1024.3 1024.4 0.2
28/12:00am 7.7 5.1 7.7 100 0.0 NNE 11 15 6 8 1024.3 1024.4 0.2
 
Date/Time
CST
Temp
°C
App
Temp
°C
Dew
Point
°C
Rel
Hum
%
Delta-T
°C
Wind Press
QNH
hPa
Press
MSL
hPa
Rain since
9am
mm
Dir  Spd
km/h
Gust
km/h
Spd
kts
Gust
kts
27/11:30pm 8.4 5.6 8.4 100 0.0 N 13 15 7 8 1024.4 1024.5 0.2
27/11:00pm 9.4 7.2 9.4 100 0.0 N 11 13 6 7 1024.3 1024.4 0.2
27/10:30pm 9.5 7.3 9.5 100 0.0 NNW 11 11 6 6 1024.4 1024.5 0.2
27/10:00pm 9.4 7.6 9.4 100 0.0 N 9 15 5 8 1024.3 1024.4 0.2
27/09:30pm 9.7 8.0 9.7 100 0.0 NW 9 13 5 7 1024.3 1024.4 0.2
27/09:00pm 8.6 6.6 8.6 100 0.0 N 9 15 5 8 1024.2 1024.3 0.2
27/08:30pm 7.9 5.7 7.9 100 0.0 NNE 9 11 5 6 1024.1 1024.2 0.2
27/08:00pm 7.4 4.7 7.4 100 0.0 NNE 11 11 6 6 1023.8 1023.9 0.2
27/07:30pm 7.5 5.2 7.4 99 0.0 NNE 9 9 5 5 1023.7 1023.8 0.2
27/07:00pm 8.3 6.5 7.9 97 0.2 N 7 9 4 5 1023.3 1023.4 0.2
27/06:30pm 9.9 7.7 9.3 96 0.3 NW 11 13 6 7 1023.1 1023.2 0.2
27/06:00pm 10.2 8.3 9.0 92 0.6 NW 9 11 5 6 1022.7 1022.8 0.2
27/05:30pm 11.0 9.1 9.1 88 0.9 NW 9 11 5 6 1022.5 1022.6 0.2
27/05:00pm 13.0 10.9 9.6 80 1.7 WNW 11 13 6 7 1022.2 1022.3 0.2
27/04:30pm 14.3 11.0 9.7 74 2.4 WNW 17 22 9 12 1022.1 1022.2 0.2
27/04:00pm 14.3 11.5 9.9 75 2.3 WNW 15 20 8 11 1021.9 1022.0 0.2
27/03:30pm 14.4 10.1 9.4 72 2.6 WNW 22 28 12 15 1021.9 1022.0 0.2
27/03:00pm 13.8 9.7 8.6 71 2.6 WNW 20 26 11 14 1021.8 1021.9 0.2
27/02:30pm 14.4 11.1 9.6 73 2.5 WNW 17 24 9 13 1021.8 1021.9 0.2
27/02:00pm 14.6 11.4 10.0 74 2.4 WNW 17 24 9 13 1021.9 1022.0 0.2
27/01:30pm 13.6 10.3 10.8 83 1.5 WNW 19 24 10 13 1022.1 1022.2 0.2
27/01:00pm 12.5 6.7 11.4 93 0.6 W 33 43 18 23 1022.4 1022.5 0.0
27/12:52pm 12.6 8.9 10.3 86 1.2 W 20 43 11 23 1022.4 1022.5 0.0

Other Formats:

Comma delimited format used in spreadsheet applications
http://www.bom.gov.au/fwo/IDS60801/IDS60801.95663.axf

JavaScript Object Notation format (JSON) in row-major order
http://www.bom.gov.au/fwo/IDS60801/IDS60801.95663.json